KAZO/AZO METAR and TAF weather

Enter ICAO airport designator
Station Type Date Time Source
KAZO METAR 2022/06/26 06:53 UTC NOAA

KAZO 260653Z AUTO 21009G15KT 10SM OVC042 22/17 A2996 RMK AO2 LTG DSNT S SLP140 T02220172


Station Type Date Time Source
KAZO Decoded METAR 2022/06/26 06:53 UTC NOAA

KALAMAZOO/BATTLE CREEK AIRPORT, MI, United States (KAZO) 42-14N 085-33W 272M
Jun 26, 2022 - 02:53 AM EDT / 2022.06.26 0653 UTC
Wind: from the SSW (210 degrees) at 10 MPH (9 KT) gusting to 17 MPH (15 KT):0
Visibility: 10 mile(s):0
Sky conditions: overcast
Weather: Lightning observed
Temperature: 72.0 F (22.2 C)
Dew Point: 63.0 F (17.2 C)
Relative Humidity: 73%
Pressure (altimeter): 29.96 in. Hg (1014 hPa)
ob: KAZO 260653Z AUTO 21009G15KT 10SM OVC042 22/17 A2996 RMK AO2 LTG DSNT S SLP140 T02220172
cycle: 7

Station Type Date Time Source
KAZO TAF 2022/06/26 06:33 UTC NOAA

TAF KAZO 260530Z 2606/2706 19006KT P6SM VCSH OVC040
FM260900 21005KT P6SM VCSH OVC020
FM261100 25006KT P6SM VCSH OVC010
FM261300 27009KT P6SM BKN035
FM270000 29015G23KT P6SM BKN250

Example: see airport list